LDDULIRQ

Guest
Details From LDDU - Dubrovnik
To LIRQ - Firenze
Flight Number -
Tags Generated
Created
Modified
Stats Distance 318 nm / 588 km
Max Altitude 0 ft / 0 m
Waypoints 3
Social Downloads 0
Likes 0
Share VATSIM

Download

Looking for another format? Having issues loading an existing format? Contact us
Advertisement - Login to hide

Notes

Generated

Route

LDDU PRT LIRQ

ID Type Via Altitude Latitude Longitude Leg Dist Tot Dist Heading (true) Name
O LDDU APT - 0 ft / 0 m 42.56986˚ 18.24681˚ - 0 nm - -
PRT VOR - 0 ft / 0 m 43.80994˚ 11.20048˚ 317 nm 317 nm 286° / 281° PERETOLA VOR-DME
O LIRQ APT - 0 ft / 0 m 43.80507˚ 11.19741˚ 0 nm 317 nm 204° / 204° -

Altitude Profile

Advertisement - Login to hide

Weather


0- 5 10 15 20 25 30 35+ Temperature / ° C

Clouds and Precipitation
Forecast for 2018-05-24 12:00 UTC. Updated 3 hours ago

Ground ~20,000 ft ~40,000 ft Winds

LDDU

Details ICAO LDDU (DBV)
Name DUBROVNIK
Region Croatia
Timezone Europe/Zagreb (UTC+2.0)
Stats Elevation 527 ft / 161 m (AMSL)
Location 42.562840° 18.264499°
Runways 1
Magnetic Variation 4.146° E

METAR

LDDU 241430Z 29012KT 240V330 9999 SCT050 24/17 Q1015 NOSIG

Decode

TAF

TAF LDDU 240525Z 2406/2506 VRB02KT 9999 FEW030 TX25/2413Z TN18/2504Z BECMG 2408/2410 29010KT PROB30 TEMPO 2411/2416 02015KT -TSRA FEW035CB SCT040 BECMG 2415/2417 30006KT TEMPO 2423/2506 02012KT

Decode

Departure Runways

ID Width Length Bearing (true) Bearing (mag) Surface Threshold Offset Overrun Length
12 148 ft / 45 m 10,803 ft / 3,293 m 118.30° 114.15° Asphalt 488 ft / 149 m 100 ft / 30 m
30 148 ft / 45 m 10,803 ft / 3,293 m 298.33° 294.18° Asphalt 0 ft / 0 m 100 ft / 30 m

LIRQ

Details ICAO LIRQ (FLR)
Name Firenze
Region Italy
Timezone Europe/Rome (UTC+2.0)
Stats Elevation 142 ft / 43 m (AMSL)
Location 43.809984° 11.205118°
Runways 1
Magnetic Variation 2.923° E

METAR

LIRQ 241420Z 25006KT 200V310 9999 SCT030 26/18 Q1016

Decode

TAF

TAF LIRQ 241100Z 2412/2512 27008KT 9999 SCT025 SCT050 TEMPO 2412/2415 RA BECMG 2416/2418 VRB04KT TEMPO 2502/2505 1200 BCFG BKN008

Decode

Destination Runways

ID Width Length Bearing (true) Bearing (mag) Surface Threshold Offset Overrun Length
05 98 ft / 30 m 5,420 ft / 1,652 m 48.52° 45.60° Asphalt 492 ft / 150 m 0 ft / 0 m
23 98 ft / 30 m 5,420 ft / 1,652 m 228.53° 225.61° Asphalt 2,287 ft / 697 m 0 ft / 0 m

Approach Navaids

Runway Type Ident Frequency Range Bearing (true) Bearing (mag) Slope Elevation
05 Localiser IFZ 110.30 MHz 18 nm / 33 km 48.10° 45.18° - 131 ft / 40 m (AMSL)
05 Glidescope IFZ 110.30 MHz 10 nm / 19 km 47.00° 44.08° 3.00° 144 ft / 44 m (AMSL)
05 DME IFZ 110.30 MHz 18 nm / 33 km - - - 144 ft / 44 m (AMSL)

Popular Alternatives